메인 페이지
METAR-TAF:

METAR-TAF

공항 :

마리스칼 수크레 국제공항

키토, 에콰도르

위도: 0-06-48S, 경도: 78-21-31W, 고도: 2400m

현재 날씨관측

예보는 1 시간 6분 전, 07:00시(UTC)에 발표되었습니다.
4kt
온도 14°C
습도 100%
기압 1027 hPa
시정 10km 이상
고도 1000ft 상공 구름 많음

METAR: SEQM 150700Z 01004KT 9999 BKN010 14/14 Q1027 NOSIG RMK A3034

시각: 03:06 (08:06 UTC)

예보

예보는 3 시간 36분 전, 04:30시(UTC)에 발표되었습니다.
예보 대상 시간: 15일 06시부터 16일 06시까지 (UTC)
여러 방향의 바람 3kt
시정 10km 이상
고도 500ft 상공 구름 보통
고도 2300ft 상공 구름 많음
일시적
15일 09시부터 15일 11시까지 (UTC)
시정: 5000m
곳곳에 안개
전환 중
15일 12시부터 15일 13시까지 (UTC)
고도 3000ft 상공 구름 보통
고도 10000ft 상공 구름 보통
15일 1800시부터 (UTC)
12kt
시정 10km 이상
고도 3000ft 상공 구름 많음
고도 9000ft 상공 구름 보통
16일 0100시부터 (UTC)
북동4kt
시정 10km 이상
고도 3000ft 상공 구름 많음
고도 9000ft 상공 구름 많음

TAF: SEQM 150430Z 1506/1606 VRB03KT 9999 SCT005 BKN023 TEMPO 1509/1511 5000 BCFG BECMG 1512/1513 SCT030 SCT100 FM151800 36012KT 9999 BKN030 SCT090 FM160100 04004KT 9999 BKN030 BKN090 TX22/1519Z TN12/1511Z

4,000개 이상의 공항 관측 자료 및 예보 (METAR 및 TAF 보고).

지도상에서 검색 가능한 기상관측소가 노란 점과 빨간 점으로 표시되어 있습니다.

기상관측소 명을 보려면 표시 위로 마우스를 이동하세요.

날씨 관측과 예보를 보려면 클릭하세요.

지도 변경 : 확대하려면 엑스 표시가 있는 녹색 버튼, 축소하려면 빼기 표시가 있는 녹색 버튼, 다음 페이지의 지도를 보려면 녹색 화살표를 클릭하세요.


METAR-TAF: